< < Back
Terminal Aerodrome Forecast


Current Version              Previous Versions:   1  2  3  4  5  6  7  8  9  

Terminal Aerodrome Forecast

529
FTUS42 KGSP 051125
TAFHKY
TAF
KHKY 051125Z 0512/0612 24003KT P6SM FEW090
     FM052000 17006KT P6SM SCT060
     FM060500 00000KT P6SM FEW060=

Latest METAR

005
SAUS70 KWBC 060800 RRD
MTRHKY
METAR KHKY 060753Z AUTO 00000KT 10SM CLR 14/12 A3024 RMK AO2 SLP220
T01390117


USA.gov is the U.S. government's official web portal to all federal, state and local government web resources and services.